createdAt,value
2018-04-17T00:01:35.619Z,12.27
2018-04-17T00:04:03.861Z,13.03
2018-04-17T00:06:32.054Z,12.90
2018-04-17T00:09:00.304Z,12.77
2018-04-17T00:11:28.589Z,16.20
2018-04-17T00:13:56.830Z,12.73
2018-04-17T00:16:25.072Z,14.00
2018-04-17T00:18:54.040Z,15.33
2018-04-17T00:21:22.737Z,12.77
2018-04-17T00:23:51.323Z,13.63
2018-04-17T00:26:19.615Z,12.07
2018-04-17T00:28:47.858Z,14.43
2018-04-17T00:31:15.874Z,15.93
2018-04-17T00:33:44.146Z,15.93
2018-04-17T00:36:12.388Z,16.17
2018-04-17T00:38:40.827Z,16.77
2018-04-17T00:41:08.991Z,12.43
2018-04-17T00:43:37.902Z,15.70
2018-04-17T00:46:06.145Z,15.00
2018-04-17T00:48:34.276Z,17.17
2018-04-17T00:51:02.827Z,16.80
2018-04-17T00:53:42.802Z,16.60
2018-04-17T00:56:11.569Z,17.80
2018-04-17T00:58:39.612Z,16.53
2018-04-17T01:01:07.550Z,17.43
2018-04-17T01:03:35.836Z,15.37
2018-04-17T01:06:04.079Z,16.47
2018-04-17T01:08:32.321Z,17.03
2018-04-17T01:11:00.564Z,12.77
2018-04-17T01:13:28.807Z,14.27
2018-04-17T01:15:57.051Z,15.67
2018-04-17T01:18:25.248Z,12.77
2018-04-17T01:20:53.534Z,15.30
2018-04-17T01:23:21.944Z,10.47
2018-04-17T01:25:50.221Z,12.37
2018-04-17T01:28:18.457Z,14.83
2018-04-17T01:30:46.700Z,11.30
2018-04-17T01:33:14.951Z,14.03
2018-04-17T01:35:42.953Z,11.60
2018-04-17T01:38:10.995Z,12.97
2018-04-17T01:40:39.276Z,11.97
2018-04-17T01:43:07.419Z,13.03
2018-04-17T01:45:35.246Z,11.87
2018-04-17T01:48:03.180Z,9.93
2018-04-17T01:50:31.373Z,14.17
2018-04-17T01:52:59.638Z,11.40
2018-04-17T01:55:28.732Z,9.77
2018-04-17T01:57:56.975Z,10.00
2018-04-17T02:00:25.217Z,12.97
2018-04-17T02:02:53.464Z,12.17
2018-04-17T02:05:21.702Z,12.83
2018-04-17T02:07:49.866Z,12.17
2018-04-17T02:10:18.733Z,12.40
2018-04-17T02:12:46.985Z,15.67
2018-04-17T02:15:15.262Z,14.40
2018-04-17T02:17:43.505Z,9.93
2018-04-17T02:20:11.627Z,13.83
2018-04-17T02:22:39.694Z,13.90
2018-04-17T02:25:08.192Z,12.40
2018-04-17T02:27:36.578Z,12.20
2018-04-17T02:30:04.822Z,11.63
2018-04-17T02:32:32.913Z,10.37
2018-04-17T02:35:01.155Z,13.93
2018-04-17T02:37:29.397Z,13.20
2018-04-17T02:39:57.689Z,14.53
2018-04-17T02:42:25.930Z,10.93
2018-04-17T02:44:54.048Z,14.00
2018-04-17T02:47:22.094Z,12.13
2018-04-17T02:49:50.264Z,12.57
2018-04-17T02:52:18.506Z,12.53
2018-04-17T02:54:46.691Z,12.87
2018-04-17T02:57:14.597Z,13.90
2018-04-17T02:59:42.774Z,15.40
2018-04-17T03:02:11.671Z,14.03
2018-04-17T03:04:39.913Z,22.77
2018-04-17T03:07:08.158Z,16.97
2018-04-17T03:09:36.340Z,13.33
2018-04-17T03:12:04.443Z,13.13
2018-04-17T03:14:32.687Z,14.07
2018-04-17T03:17:00.867Z,15.03
2018-04-17T03:19:29.172Z,15.60
2018-04-17T03:21:57.312Z,12.43
2018-04-17T03:24:25.461Z,13.33
2018-04-17T03:26:53.703Z,10.20
2018-04-17T03:29:21.878Z,15.30
2018-04-17T03:31:50.975Z,16.23
2018-04-17T03:34:19.218Z,12.17
2018-04-17T03:36:47.404Z,12.73
2018-04-17T03:39:15.308Z,12.63
2018-04-17T03:41:43.551Z,13.77
2018-04-17T03:44:11.728Z,16.67
2018-04-17T03:46:40.498Z,14.40
2018-04-17T03:49:08.550Z,15.17
2018-04-17T03:51:36.653Z,13.47
2018-04-17T03:54:05.495Z,13.97
2018-04-17T03:56:33.791Z,13.80
2018-04-17T03:59:01.989Z,15.07
2018-04-17T04:01:30.196Z,13.90
2018-04-17T04:03:59.306Z,13.37
2018-04-17T04:06:27.549Z,15.53
2018-04-17T04:08:55.526Z,16.73
2018-04-17T04:11:24.425Z,16.97
2018-04-17T04:13:52.678Z,12.53
2018-04-17T04:16:32.524Z,16.33
2018-04-17T04:19:12.549Z,15.77
2018-04-17T04:21:52.391Z,21.27
2018-04-17T04:24:31.840Z,13.43
2018-04-17T04:26:59.838Z,19.90
2018-04-17T04:29:27.737Z,15.90
2018-04-17T04:31:55.882Z,23.48
2018-04-17T04:34:24.768Z,19.50
2018-04-17T04:36:53.054Z,18.00
2018-04-17T04:39:21.297Z,18.97
2018-04-17T04:41:49.542Z,16.07
2018-04-17T04:44:17.786Z,16.50
2018-04-17T04:46:45.929Z,12.33
2018-04-17T04:49:14.025Z,15.23
2018-04-17T04:51:42.212Z,14.00
2018-04-17T04:54:10.361Z,13.37
2018-04-17T04:56:38.356Z,15.57
2018-04-17T04:59:06.560Z,14.87
2018-04-17T05:01:34.627Z,16.03
2018-04-17T05:04:02.738Z,15.00
2018-04-17T05:06:31.765Z,15.73
2018-04-17T05:09:00.009Z,12.73
2018-04-17T05:11:28.252Z,12.87
2018-04-17T05:13:56.437Z,16.73
2018-04-17T05:16:24.680Z,19.97
2018-04-17T05:18:52.724Z,13.47
2018-04-17T05:21:21.564Z,12.00
2018-04-17T05:23:49.862Z,14.30
2018-04-17T05:26:18.102Z,11.67
2018-04-17T05:28:46.155Z,13.80
2018-04-17T05:31:14.385Z,12.83
2018-04-17T05:33:42.632Z,10.20
2018-04-17T05:36:10.817Z,10.17
2018-04-17T05:38:38.887Z,12.73
2018-04-17T05:41:07.164Z,13.60
2018-04-17T05:43:35.414Z,12.00
2018-04-17T05:46:04.385Z,14.47
2018-04-17T05:48:32.689Z,11.67
2018-04-17T05:51:01.706Z,15.73
2018-04-17T05:53:30.507Z,14.00
2018-04-17T05:55:58.734Z,10.23
2018-04-17T05:58:26.970Z,14.00
2018-04-17T06:00:55.265Z,13.87
2018-04-17T06:03:23.268Z,14.50
2018-04-17T06:05:51.554Z,11.93
2018-04-17T06:08:19.601Z,11.03
2018-04-17T06:10:48.236Z,12.23
2018-04-17T06:13:16.423Z,13.93
2018-04-17T06:15:44.639Z,11.83
2018-04-17T06:18:12.963Z,10.63
2018-04-17T06:20:41.214Z,16.47
2018-04-17T06:23:09.448Z,12.93
2018-04-17T06:25:37.695Z,11.73
2018-04-17T06:28:05.876Z,12.47
2018-04-17T06:30:34.177Z,14.77
2018-04-17T06:33:02.359Z,11.03
2018-04-17T06:35:30.578Z,9.93
2018-04-17T06:37:58.472Z,8.73
2018-04-17T06:40:26.635Z,10.70
2018-04-17T06:42:54.998Z,10.40
2018-04-17T06:45:22.995Z,10.63
2018-04-17T06:47:51.283Z,10.13
2018-04-17T06:50:19.525Z,9.13
2018-04-17T06:52:47.702Z,10.67
2018-04-17T06:55:15.913Z,10.17
2018-04-17T06:57:44.057Z,9.47
2018-04-17T07:00:12.299Z,6.40
2018-04-17T07:02:40.542Z,8.63
2018-04-17T07:05:08.552Z,10.83
2018-04-17T07:07:36.587Z,8.87
2018-04-17T07:10:04.819Z,9.33
2018-04-17T07:12:33.118Z,8.40
2018-04-17T07:15:02.678Z,9.77
2018-04-17T07:17:30.980Z,6.60
2018-04-17T07:19:59.812Z,7.80
2018-04-17T07:22:28.055Z,8.67
2018-04-17T07:24:56.298Z,10.50
2018-04-17T07:27:24.198Z,9.83
2018-04-17T07:29:52.330Z,8.10
2018-04-17T07:32:20.633Z,6.37
2018-04-17T07:34:48.873Z,5.40
2018-04-17T07:37:17.117Z,7.13
2018-04-17T07:39:45.362Z,8.57
2018-04-17T07:42:14.388Z,10.87
2018-04-17T07:44:42.440Z,8.53
2018-04-17T07:47:22.706Z,8.20
2018-04-17T07:49:50.680Z,6.13
2018-04-17T07:52:18.958Z,6.93
2018-04-17T07:54:47.156Z,8.77
2018-04-17T07:57:15.346Z,6.03
2018-04-17T07:59:43.437Z,12.70
2018-04-17T08:02:11.732Z,8.07
2018-04-17T08:04:39.675Z,9.30
2018-04-17T08:07:07.766Z,9.37
2018-04-17T08:09:35.823Z,7.73
2018-04-17T08:12:04.003Z,11.20
2018-04-17T08:14:32.093Z,4.45
2018-04-17T08:17:00.935Z,10.70
2018-04-17T08:19:29.339Z,9.98
2018-04-17T08:21:57.281Z,6.40
2018-04-17T08:24:25.461Z,7.87
2018-04-17T08:26:53.681Z,7.00
2018-04-17T08:29:21.614Z,6.37
2018-04-17T08:31:49.766Z,8.40
2018-04-17T08:34:17.901Z,5.40
2018-04-17T08:36:46.151Z,7.68
2018-04-17T08:39:14.931Z,8.75
2018-04-17T08:41:42.825Z,5.75
2018-04-17T08:44:10.835Z,7.50
2018-04-17T08:46:39.113Z,8.82
2018-04-17T08:49:07.538Z,8.90
2018-04-17T08:51:35.954Z,7.47
2018-04-17T08:54:04.197Z,7.07
2018-04-17T08:56:32.477Z,8.63
2018-04-17T08:59:00.491Z,11.48
2018-04-17T09:01:28.701Z,8.00
2018-04-17T09:03:57.013Z,6.82
2018-04-17T09:06:25.249Z,6.20
2018-04-17T09:08:53.498Z,8.63
2018-04-17T09:11:21.742Z,7.30
2018-04-17T09:13:49.913Z,8.02
2018-04-17T09:16:18.958Z,7.82
2018-04-17T09:18:47.248Z,10.25
2018-04-17T09:21:15.500Z,11.40
2018-04-17T09:23:44.687Z,11.05
2018-04-17T09:26:12.850Z,7.35
2018-04-17T09:28:40.808Z,9.80
2018-04-17T09:31:08.988Z,7.65
2018-04-17T09:33:37.690Z,7.93
2018-04-17T09:36:05.889Z,8.85
2018-04-17T09:38:33.913Z,9.65
2018-04-17T09:41:02.956Z,8.10
2018-04-17T09:43:31.247Z,6.68
2018-04-17T09:45:59.490Z,10.75
2018-04-17T09:48:27.732Z,11.52
2018-04-17T09:50:55.974Z,7.65
2018-04-17T09:53:24.143Z,10.13
2018-04-17T09:55:53.246Z,8.68
2018-04-17T09:58:21.300Z,7.20
2018-04-17T10:00:55.040Z,8.02
2018-04-17T10:03:23.289Z,8.18
2018-04-17T10:05:52.079Z,6.32
2018-04-17T10:10:54.005Z,6.97
2018-04-17T10:13:22.152Z,6.05
2018-04-17T10:15:51.179Z,7.95
2018-04-17T10:18:19.421Z,7.65
2018-04-17T10:20:47.479Z,7.62
2018-04-17T10:23:15.483Z,6.65
2018-04-17T10:25:43.757Z,8.35
2018-04-17T10:28:12.313Z,9.90
2018-04-17T10:30:41.180Z,10.73
2018-04-17T10:33:09.473Z,8.15
2018-04-17T10:35:37.709Z,9.18
2018-04-17T10:38:06.744Z,9.52
2018-04-17T10:40:34.855Z,8.02
2018-04-17T10:43:03.026Z,9.95
2018-04-17T10:45:31.210Z,7.00
2018-04-17T10:47:59.452Z,10.02
2018-04-17T10:50:27.758Z,7.22
2018-04-17T10:52:55.761Z,8.43
2018-04-17T10:55:23.930Z,11.02
2018-04-17T10:57:52.023Z,9.23
2018-04-17T11:00:21.708Z,9.35
2018-04-17T11:02:50.661Z,7.68
2018-04-17T11:05:19.525Z,10.27
2018-04-17T11:07:47.819Z,9.80
2018-04-17T11:10:15.825Z,6.70
2018-04-17T11:12:44.100Z,8.60
2018-04-17T11:15:12.345Z,8.37
2018-04-17T11:17:40.338Z,8.60
2018-04-17T11:20:08.555Z,6.63
2018-04-17T11:22:37.463Z,9.27
2018-04-17T11:25:05.705Z,6.80
2018-04-17T11:27:33.947Z,7.53
2018-04-17T11:30:02.191Z,7.63
2018-04-17T11:32:30.343Z,6.00
2018-04-17T11:34:58.435Z,7.00
2018-04-17T11:37:26.679Z,9.83
2018-04-17T11:39:54.963Z,7.07
2018-04-17T11:42:23.207Z,9.07
2018-04-17T11:44:51.405Z,6.97
2018-04-17T11:47:19.601Z,7.15
2018-04-17T11:49:47.639Z,7.95
2018-04-17T11:52:15.554Z,8.43
2018-04-17T11:54:43.731Z,5.33
2018-04-17T11:57:12.470Z,5.15
2018-04-17T11:59:40.476Z,5.87
2018-04-17T12:02:08.528Z,6.80
2018-04-17T12:04:37.194Z,6.15
2018-04-17T12:07:05.436Z,8.05
2018-04-17T12:09:33.499Z,6.03
2018-04-17T12:12:01.724Z,5.78
2018-04-17T12:14:29.774Z,6.05
2018-04-17T12:16:58.576Z,5.70
2018-04-17T12:19:26.845Z,6.70
2018-04-17T12:21:55.872Z,5.77
2018-04-17T12:24:24.115Z,5.80
2018-04-17T12:26:52.082Z,7.12
2018-04-17T12:29:21.881Z,6.57
2018-04-17T12:31:50.138Z,6.30
2018-04-17T12:34:19.381Z,4.82
2018-04-17T12:36:48.675Z,7.43
2018-04-17T12:39:16.912Z,4.47
2018-04-17T12:41:44.925Z,5.72
2018-04-17T12:44:13.201Z,7.30
2018-04-17T12:46:42.144Z,4.65
2018-04-17T12:49:10.214Z,4.10
2018-04-17T12:51:38.518Z,5.43
2018-04-17T12:54:06.693Z,6.70
2018-04-17T12:56:35.405Z,14.98
2018-04-17T12:59:03.638Z,12.37
2018-04-17T13:01:32.678Z,8.00
2018-04-17T13:04:00.911Z,5.45
2018-04-17T13:06:29.054Z,6.67
2018-04-17T13:08:57.722Z,6.55
2018-04-17T13:11:26.565Z,4.80
2018-04-17T13:13:54.627Z,7.03
2018-04-17T13:16:22.826Z,4.93
2018-04-17T13:18:51.154Z,6.53
2018-04-17T13:21:19.537Z,4.23
2018-04-17T13:23:47.835Z,5.80
2018-04-17T13:26:16.003Z,5.13
2018-04-17T13:28:44.766Z,5.67
2018-04-17T13:31:12.955Z,5.87
2018-04-17T13:33:41.151Z,3.10
2018-04-17T13:36:09.457Z,4.27
2018-04-17T13:38:37.688Z,3.90
2018-04-17T13:41:05.935Z,3.60
2018-04-17T13:43:34.145Z,5.00
2018-04-17T13:46:02.184Z,4.73
2018-04-17T13:48:30.205Z,3.83
2018-04-17T13:50:58.502Z,4.10
2018-04-17T13:53:26.744Z,5.37
2018-04-17T13:55:54.991Z,3.03
2018-04-17T13:58:23.776Z,3.80
2018-04-17T14:00:51.818Z,5.55
2018-04-17T14:03:19.987Z,3.28
2018-04-17T14:05:48.257Z,2.90
2018-04-17T14:08:16.323Z,3.42
2018-04-17T14:10:45.188Z,5.22
2018-04-17T14:13:13.403Z,4.47
2018-04-17T14:15:42.301Z,5.25
2018-04-17T14:18:10.543Z,3.67
2018-04-17T14:20:38.591Z,2.25
2018-04-17T14:23:06.773Z,3.60
2018-04-17T14:25:34.712Z,4.00
2018-04-17T14:28:02.925Z,2.23
2018-04-17T14:30:31.954Z,4.07
2018-04-17T14:33:00.120Z,2.50
2018-04-17T14:35:29.028Z,3.27
2018-04-17T14:37:57.633Z,4.50
2018-04-17T14:40:25.827Z,3.37
2018-04-17T14:42:54.544Z,5.57
2018-04-17T14:45:22.788Z,3.87
2018-04-17T14:47:50.934Z,5.63
2018-04-17T14:50:19.018Z,4.40
2018-04-17T14:52:47.260Z,4.17
2018-04-17T14:55:15.487Z,4.07
2018-04-17T14:57:44.244Z,4.47
2018-04-17T15:00:12.632Z,3.03
2018-04-17T15:02:40.754Z,4.63
2018-04-17T15:05:08.923Z,3.67
2018-04-17T15:07:37.164Z,4.27
2018-04-17T15:10:05.208Z,5.43
2018-04-17T15:12:33.453Z,4.50
2018-04-17T15:15:01.649Z,6.70
2018-04-17T15:17:29.883Z,4.20
2018-04-17T15:19:58.179Z,4.67
2018-04-17T15:22:26.421Z,4.80
2018-04-17T15:24:54.387Z,4.53
2018-04-17T15:27:23.157Z,6.30
2018-04-17T15:29:51.345Z,4.60
2018-04-17T15:32:19.585Z,6.07
2018-04-17T15:34:47.757Z,6.37
2018-04-17T15:37:16.599Z,4.10
2018-04-17T15:39:45.642Z,3.17
2018-04-17T15:42:13.889Z,5.23
2018-04-17T15:47:16.905Z,2.90
2018-04-17T15:49:45.149Z,5.40
2018-04-17T15:52:13.328Z,7.20
2018-04-17T15:54:42.171Z,4.53
2018-04-17T15:57:10.415Z,4.13
2018-04-17T15:59:38.707Z,3.53
2018-04-17T16:02:06.950Z,4.40
2018-04-17T16:04:35.096Z,4.13
2018-04-17T16:07:03.184Z,3.40
2018-04-17T16:09:31.384Z,4.20
2018-04-17T16:11:59.398Z,5.10
2018-04-17T16:14:28.259Z,4.93
2018-04-17T16:16:56.554Z,5.03
2018-04-17T16:19:24.805Z,3.87
2018-04-17T16:21:53.239Z,3.43
2018-04-17T16:24:21.434Z,6.10
2018-04-17T16:26:49.474Z,3.57
2018-04-17T16:29:17.820Z,4.37
2018-04-17T16:31:45.960Z,3.90
2018-04-17T16:34:13.975Z,3.53
2018-04-17T16:36:42.147Z,5.67
2018-04-17T16:39:10.336Z,3.87
2018-04-17T16:41:38.632Z,5.27
2018-04-17T16:44:06.680Z,3.97
2018-04-17T16:46:35.707Z,6.47
2018-04-17T16:49:03.879Z,7.53
2018-04-17T16:51:32.555Z,5.47
2018-04-17T16:54:00.739Z,4.63
2018-04-17T16:56:28.806Z,3.80
2018-04-17T16:58:57.902Z,4.30
2018-04-17T17:01:26.044Z,3.83
2018-04-17T17:03:54.190Z,3.23
2018-04-17T17:06:22.330Z,3.77
2018-04-17T17:08:51.020Z,5.27
2018-04-17T17:11:19.315Z,5.40
2018-04-17T17:13:48.342Z,10.27
2018-04-17T17:16:17.750Z,6.37
2018-04-17T17:18:45.938Z,10.83
2018-04-17T17:21:14.781Z,5.80
2018-04-17T17:23:43.085Z,6.87
2018-04-17T17:26:11.713Z,3.63
2018-04-17T17:28:39.957Z,3.77
2018-04-17T17:31:08.198Z,3.77
2018-04-17T17:33:36.368Z,2.83
2018-04-17T17:36:05.410Z,3.40
2018-04-17T17:38:33.517Z,3.57
2018-04-17T17:41:02.544Z,2.47
2018-04-17T17:43:30.786Z,2.47
2018-04-17T17:45:59.029Z,4.97
2018-04-17T17:48:27.272Z,4.83
2018-04-17T17:50:55.472Z,3.00
2018-04-17T17:53:23.682Z,3.93
2018-04-17T17:55:52.727Z,3.57
2018-04-17T17:58:21.027Z,4.30
2018-04-17T18:00:49.270Z,2.50
2018-04-17T18:03:17.452Z,3.23
2018-04-17T18:05:46.346Z,3.50
2018-04-17T18:08:14.586Z,4.63
2018-04-17T18:10:42.829Z,3.87
2018-04-17T18:13:10.805Z,3.37
2018-04-17T18:15:39.843Z,4.17
2018-04-17T18:18:08.858Z,5.17
2018-04-17T18:20:37.773Z,6.20
2018-04-17T18:23:05.866Z,8.43
2018-04-17T18:25:33.814Z,5.27
2018-04-17T18:28:02.051Z,5.60
2018-04-17T18:30:30.293Z,5.90
2018-04-17T18:32:58.540Z,7.87
2018-04-17T18:35:26.778Z,7.97
2018-04-17T18:37:55.020Z,9.07
2018-04-17T18:40:23.273Z,7.73
2018-04-17T18:42:51.356Z,6.63
2018-04-17T18:45:19.498Z,7.03
2018-04-17T18:47:47.646Z,7.57
2018-04-17T18:50:15.882Z,8.03
2018-04-17T18:52:44.136Z,7.63
2018-04-17T18:55:13.091Z,6.43
2018-04-17T18:57:42.204Z,7.67
2018-04-17T19:00:10.325Z,10.47
2018-04-17T19:02:38.620Z,6.47
2018-04-17T19:05:07.070Z,7.93
2018-04-17T19:07:35.101Z,11.43
2018-04-17T19:10:03.345Z,11.97
2018-04-17T19:12:31.403Z,10.67
2018-04-17T19:14:59.682Z,10.37
2018-04-17T19:17:27.696Z,9.97
2018-04-17T19:19:55.731Z,7.87
2018-04-17T19:22:23.805Z,6.67
2018-04-17T19:24:51.823Z,7.87
2018-04-17T19:27:20.107Z,8.93
2018-04-17T19:29:48.130Z,7.50
2018-04-17T19:32:16.299Z,6.80
2018-04-17T19:34:44.593Z,12.37
2018-04-17T19:37:12.885Z,9.07
2018-04-17T19:39:41.123Z,10.67
2018-04-17T19:42:09.635Z,9.83
2018-04-17T19:44:38.299Z,6.97
2018-04-17T19:47:06.303Z,7.33
2018-04-17T19:49:35.492Z,10.53
2018-04-17T19:52:03.709Z,6.93
2018-04-17T19:54:32.330Z,6.57
2018-04-17T19:57:00.592Z,8.77
2018-04-17T19:59:28.829Z,6.43
2018-04-17T20:01:57.016Z,6.53
2018-04-17T20:04:25.770Z,7.10
2018-04-17T20:06:53.968Z,7.33
2018-04-17T20:09:22.203Z,7.77
2018-04-17T20:11:50.327Z,8.80
2018-04-17T20:14:18.425Z,6.13
2018-04-17T20:16:46.726Z,6.97
2018-04-17T20:19:14.963Z,8.17
2018-04-17T20:21:43.207Z,11.37
2018-04-17T20:24:11.388Z,8.63
2018-04-17T20:26:40.657Z,7.43
2018-04-17T20:29:09.100Z,8.13
2018-04-17T20:31:37.333Z,8.13
2018-04-17T20:34:05.510Z,7.13
2018-04-17T20:36:33.787Z,8.77
2018-04-17T20:39:02.242Z,11.50
2018-04-17T20:41:30.345Z,11.30
2018-04-17T20:43:59.157Z,7.73
2018-04-17T20:46:27.674Z,7.50
2018-04-17T20:48:55.963Z,9.27
2018-04-17T20:51:25.059Z,8.87
2018-04-17T20:53:53.307Z,7.40
2018-04-17T20:56:21.548Z,9.97
2018-04-17T20:58:50.130Z,9.87
2018-04-17T21:01:18.435Z,9.17
2018-04-17T21:03:47.706Z,9.10
2018-04-17T21:06:15.895Z,11.03
2018-04-17T21:08:44.099Z,9.93
2018-04-17T21:11:12.773Z,10.13
2018-04-17T21:13:41.158Z,8.33
2018-04-17T21:16:09.401Z,9.23
2018-04-17T21:18:37.644Z,9.50
2018-04-17T21:21:06.136Z,8.67
2018-04-17T21:23:34.288Z,12.03
2018-04-17T21:26:02.220Z,10.80
2018-04-17T21:28:30.235Z,11.13
2018-04-17T21:30:58.514Z,9.27
2018-04-17T21:33:26.566Z,12.63
2018-04-17T21:35:54.814Z,11.63
2018-04-17T21:38:23.671Z,12.47
2018-04-17T21:40:51.878Z,14.57
2018-04-17T21:43:20.076Z,12.27
2018-04-17T21:45:48.952Z,12.23
2018-04-17T21:48:17.249Z,11.07
2018-04-17T21:50:45.443Z,13.23
2018-04-17T21:53:13.911Z,15.10
2018-04-17T21:55:42.315Z,13.80
2018-04-17T21:58:10.422Z,12.17
2018-04-17T22:00:38.507Z,15.77
2018-04-17T22:03:06.810Z,13.90
2018-04-17T22:05:34.911Z,12.63
2018-04-17T22:08:03.063Z,12.40
2018-04-17T22:10:32.222Z,13.53
2018-04-17T22:13:00.510Z,13.33
2018-04-17T22:15:29.245Z,11.07
2018-04-17T22:17:57.478Z,10.80
2018-04-17T22:20:25.491Z,13.70
2018-04-17T22:22:53.673Z,12.20
2018-04-17T22:25:21.958Z,10.90
2018-04-17T22:27:50.252Z,9.30
2018-04-17T22:30:18.803Z,11.50
2018-04-17T22:32:47.916Z,10.23
2018-04-17T22:35:16.233Z,12.87
2018-04-17T22:37:44.520Z,11.97
2018-04-17T22:40:13.565Z,10.97
2018-04-17T22:42:42.612Z,10.87
2018-04-17T22:45:11.101Z,10.07
2018-04-17T22:47:39.667Z,11.43
2018-04-17T22:50:07.971Z,12.13
2018-04-17T22:52:36.396Z,12.57
2018-04-17T22:55:04.569Z,12.87
2018-04-17T22:57:32.867Z,13.73
2018-04-17T23:00:01.139Z,11.77
2018-04-17T23:02:29.281Z,13.17
2018-04-17T23:04:57.360Z,12.97
2018-04-17T23:07:25.798Z,12.43
2018-04-17T23:09:54.893Z,13.60
2018-04-17T23:12:23.135Z,14.50
2018-04-17T23:14:51.179Z,11.37
2018-04-17T23:17:19.370Z,13.70
2018-04-17T23:19:47.863Z,13.43
2018-04-17T23:22:16.255Z,11.83
2018-04-17T23:24:44.545Z,13.43
2018-04-17T23:27:12.845Z,10.70
2018-04-17T23:29:41.968Z,10.23
2018-04-17T23:32:10.255Z,13.30
2018-04-17T23:34:38.496Z,12.17
2018-04-17T23:37:06.636Z,11.43
2018-04-17T23:39:34.985Z,14.03
2018-04-17T23:42:03.230Z,11.87
2018-04-17T23:44:32.189Z,10.10
2018-04-17T23:47:01.228Z,9.43
2018-04-17T23:49:29.524Z,11.40
2018-04-17T23:51:58.112Z,11.23
2018-04-17T23:54:26.409Z,14.50
2018-04-17T23:56:54.656Z,13.53
2018-04-17T23:59:23.288Z,12.50
